Time;durP1;ratioP1;P1;durP2;ratioP2;P2;SDS_P1;SDS_P2;PMS_P1;PMS_P2;Temp;Humidity;BMP_temperature;BMP_pressure;BME280_temperature;BME280_humidity;BME280_pressure;Samples;Min_cycle;Max_cycle;Signal;HPM_P1;HPM_P2
2024/04/13 00:01:09;;;;;;;8.90;4.50;;;;;;;14.74;86.96;101752.53;5445234;26;20011;-66
2024/04/13 00:03:34;;;;;;;7.75;3.45;;;;;;;14.70;86.87;101740.81;5444076;26;20075;-66
2024/04/13 00:06:00;;;;;;;15.77;4.10;;;;;;;14.63;86.62;101746.09;5432197;26;19995;-66
2024/04/13 00:08:25;;;;;;;9.75;4.50;;;;;;;14.57;87.16;101726.63;5413565;26;20072;-66
2024/04/13 00:10:51;;;;;;;11.45;4.93;;;;;;;14.58;87.34;101727.38;5432026;26;20044;-66
2024/04/13 00:13:17;;;;;;;15.63;3.65;;;;;;;14.59;87.67;101729.75;5418912;26;20075;-66
2024/04/13 00:15:43;;;;;;;10.75;3.85;;;;;;;14.62;88.09;101723.59;5440042;26;20007;-66
2024/04/13 00:18:08;;;;;;;14.13;4.38;;;;;;;14.62;87.20;101726.31;5440737;26;20010;-66
2024/04/13 00:20:34;;;;;;;12.57;3.85;;;;;;;14.64;87.90;101723.25;5408269;26;20087;-67
2024/04/13 00:22:59;;;;;;;8.38;3.88;;;;;;;14.61;88.03;101713.91;5418394;26;19998;-66
2024/04/13 00:25:29;;;;;;;10.77;3.83;;;;;;;14.66;88.17;101712.84;5412271;26;20077;-66
2024/04/13 00:27:55;;;;;;;8.85;3.67;;;;;;;14.61;88.59;101705.00;5417592;26;20006;-66
2024/04/13 00:30:20;;;;;;;13.98;3.75;;;;;;;14.60;88.58;101709.63;5447396;26;20104;-66
2024/04/13 00:32:46;;;;;;;12.73;3.88;;;;;;;14.63;88.44;101705.41;5418322;26;20035;-66
2024/04/13 00:35:11;;;;;;;7.80;3.40;;;;;;;14.64;88.84;101694.22;5445227;26;20026;-66
2024/04/13 00:37:37;;;;;;;8.38;2.95;;;;;;;14.66;88.51;101691.13;5447545;26;19999;-66
2024/04/13 00:40:05;;;;;;;10.10;3.83;;;;;;;14.68;88.77;101699.72;5441911;26;20037;-66
2024/04/13 00:42:30;;;;;;;12.70;3.92;;;;;;;14.67;88.50;101698.16;5409294;26;20010;-66
2024/04/13 00:45:03;;;;;;;9.77;3.47;;;;;;;14.71;88.53;101712.56;5444625;26;20058;-66
2024/04/13 00:47:34;;;;;;;6.38;2.95;;;;;;;14.66;88.31;101691.94;5446138;26;19994;-66
2024/04/13 00:50:02;;;;;;;9.00;3.80;;;;;;;14.67;87.69;101698.16;5440847;26;20010;-67
2024/04/13 00:52:29;;;;;;;12.25;3.05;;;;;;;14.66;87.84;101691.94;5416486;26;20076;-66
2024/04/13 00:54:56;;;;;;;10.02;2.70;;;;;;;14.61;87.28;101694.16;5446247;26;19995;-66
2024/04/13 00:57:26;;;;;;;7.72;2.92;;;;;;;14.59;87.64;101691.00;5443443;26;20007;-66
2024/04/13 00:59:53;;;;;;;7.10;2.60;;;;;;;14.59;87.68;101685.59;5443001;26;19998;-66
2024/04/13 01:02:19;;;;;;;13.23;3.03;;;;;;;14.59;87.48;101680.94;5439054;26;20475;-67
2024/04/13 01:04:48;;;;;;;4.75;2.58;;;;;;;14.58;87.04;101684.00;5415486;26;20009;-66
2024/04/13 01:07:18;;;;;;;7.97;2.50;;;;;;;14.56;87.73;101670.81;5445199;26;20032;-66
2024/04/13 01:09:47;;;;;;;5.30;2.33;;;;;;;14.63;87.75;101675.59;5415692;26;20002;-66
2024/04/13 01:12:13;;;;;;;3.83;2.08;;;;;;;14.64;87.37;101671.72;5406779;26;20031;-66
2024/04/13 01:14:39;;;;;;;8.98;2.60;;;;;;;14.64;87.78;101661.69;5413840;26;19995;-67
2024/04/13 01:17:05;;;;;;;4.88;2.33;;;;;;;14.62;87.48;101663.97;5438916;26;20009;-66
2024/04/13 01:19:31;;;;;;;11.02;2.72;;;;;;;14.55;87.29;101665.75;5447484;26;19995;-67
2024/04/13 01:21:59;;;;;;;4.28;2.05;;;;;;;14.51;87.35;101662.16;5439547;26;20039;-67
2024/04/13 01:24:24;;;;;;;4.05;2.35;;;;;;;14.45;87.22;101664.38;5444559;26;20379;-66
2024/04/13 01:26:52;;;;;;;7.43;2.47;;;;;;;14.40;87.11;101667.38;5413837;26;20033;-66
2024/04/13 01:29:17;;;;;;;5.13;2.33;;;;;;;14.41;87.37;101663.53;5441003;26;19998;-67
2024/04/13 01:31:43;;;;;;;6.25;2.47;;;;;;;14.38;87.94;101662.31;5416765;26;20080;-67
2024/04/13 01:34:08;;;;;;;7.53;2.30;;;;;;;14.42;87.10;101657.75;5409505;26;20000;-67
2024/04/13 01:36:37;;;;;;;4.75;1.77;;;;;;;14.43;87.70;101656.63;5443342;26;19998;-66
2024/04/13 01:39:13;;;;;;;11.07;2.28;;;;;;;14.40;87.78;101662.72;5407998;26;20019;-67
2024/04/13 01:41:41;;;;;;;7.70;2.35;;;;;;;14.41;87.99;101661.59;5428945;26;20399;-66
2024/04/13 01:44:07;;;;;;;7.40;2.28;;;;;;;14.39;88.10;101661.19;5414538;26;19998;-67
2024/04/13 01:46:34;;;;;;;5.88;2.80;;;;;;;14.40;87.84;101661.97;5444933;26;19995;-67
2024/04/13 01:49:01;;;;;;;8.73;2.35;;;;;;;14.51;87.14;101656.75;5441186;26;20015;-67
2024/04/13 01:51:28;;;;;;;6.45;2.72;;;;;;;14.53;87.15;101651.75;5439098;26;19995;-67
2024/04/13 01:53:54;;;;;;;12.73;3.00;;;;;;;14.54;87.01;101651.41;5423954;26;20011;-67
2024/04/13 01:56:19;;;;;;;9.07;2.13;;;;;;;14.53;87.20;101655.25;5435400;26;20472;-67
2024/04/13 01:58:45;;;;;;;8.30;2.40;;;;;;;14.49;87.26;101648.97;5410545;26;20060;-66
2024/04/13 02:01:11;;;;;;;4.20;1.67;;;;;;;14.49;87.40;101648.97;5438843;26;20349;-67
2024/04/13 02:03:37;;;;;;;6.32;2.83;;;;;;;14.55;87.46;101657.63;5416056;26;20488;-66
2024/04/13 02:06:04;;;;;;;7.60;2.53;;;;;;;14.54;86.79;101645.22;5441283;26;20425;-66
2024/04/13 02:08:33;;;;;;;5.15;2.42;;;;;;;14.62;86.72;101641.47;5438857;26;20344;-66
2024/04/13 02:11:00;;;;;;;2.40;1.60;;;;;;;14.60;86.76;101652.69;5443474;26;20348;-67
2024/04/13 02:13:27;;;;;;;5.45;2.25;;;;;;;14.58;86.90;101646.03;5444257;26;20349;-67
2024/04/13 02:15:54;;;;;;;6.00;2.47;;;;;;;14.63;86.77;101643.84;5444679;26;20017;-67
2024/04/13 02:18:20;;;;;;;9.38;2.40;;;;;;;14.69;86.21;101641.63;5447513;26;20002;-66
2024/04/13 02:20:46;;;;;;;4.78;2.00;;;;;;;14.66;86.17;101639.63;5445182;26;20335;-67
2024/04/13 02:23:12;;;;;;;5.45;2.00;;;;;;;14.61;86.45;101639.91;5438666;26;20003;-66
2024/04/13 02:25:42;;;;;;;3.95;1.85;;;;;;;14.67;86.44;101638.50;5441707;26;19995;-67
2024/04/13 02:28:09;;;;;;;4.40;1.70;;;;;;;14.62;86.32;101630.63;5410768;26;19995;-66
2024/04/13 02:30:35;;;;;;;4.03;2.25;;;;;;;14.63;86.66;101629.50;5428201;26;20007;-66
2024/04/13 02:33:03;;;;;;;4.40;2.22;;;;;;;14.61;86.53;101629.88;5416615;26;19994;-66
2024/04/13 02:35:29;;;;;;;4.15;2.10;;;;;;;14.59;86.99;101637.56;5435718;26;20049;-67
2024/04/13 02:37:55;;;;;;;5.53;2.05;;;;;;;14.63;87.06;101624.09;5416010;26;20078;-66
2024/04/13 02:40:23;;;;;;;7.32;2.13;;;;;;;14.69;85.92;101625.38;5443346;26;20480;-66
2024/04/13 02:42:56;;;;;;;5.50;2.42;;;;;;;14.69;86.66;101628.84;5410040;26;19999;-67
2024/04/13 02:45:22;;;;;;;4.38;2.25;;;;;;;14.61;86.50;101626.38;5440183;26;20365;-67
2024/04/13 02:47:50;;;;;;;10.77;2.45;;;;;;;14.62;87.06;101630.63;5411261;26;20046;-67
2024/04/13 02:50:19;;;;;;;4.90;1.58;;;;;;;14.59;87.10;101626.72;5444874;26;20003;-67
2024/04/13 02:52:46;;;;;;;6.28;2.00;;;;;;;14.60;87.05;101627.50;5410040;26;19999;-67
2024/04/13 02:55:12;;;;;;;5.32;1.88;;;;;;;14.57;86.99;101623.59;5435666;26;19994;-67
2024/04/13 02:57:37;;;;;;;6.00;2.00;;;;;;;14.61;86.69;101624.44;5442775;26;20007;-67
2024/04/13 03:00:03;;;;;;;5.10;1.90;;;;;;;14.65;86.81;101614.47;5441461;26;20076;-67
2024/04/13 03:02:29;;;;;;;5.50;1.77;;;;;;;14.67;86.55;101620.31;5443223;26;20401;-66
2024/04/13 03:04:55;;;;;;;5.53;2.00;;;;;;;14.61;86.96;101626.38;5411653;26;20076;-66
2024/04/13 03:07:20;;;;;;;6.50;1.67;;;;;;;14.64;87.23;101625.63;5435108;26;20341;-66
2024/04/13 03:09:48;;;;;;;3.60;1.85;;;;;;;14.64;86.98;101628.34;5442644;26;20018;-67
2024/04/13 03:12:13;;;;;;;7.88;2.05;;;;;;;14.72;86.54;101625.44;5446078;26;19995;-66
2024/04/13 03:14:39;;;;;;;2.80;1.60;;;;;;;14.67;87.10;101616.81;5409911;26;20003;-66
2024/04/13 03:17:05;;;;;;;3.08;1.80;;;;;;;14.67;86.73;101611.38;5441263;26;20018;-66
2024/04/13 03:19:32;;;;;;;5.20;2.13;;;;;;;14.66;86.88;101610.59;5423492;26;20011;-67
2024/04/13 03:21:59;;;;;;;3.55;1.80;;;;;;;14.68;86.74;101612.94;5439598;26;20011;-67
2024/04/13 03:24:25;;;;;;;3.13;1.80;;;;;;;14.70;86.89;101614.16;5435524;26;20481;-67
2024/04/13 03:26:51;;;;;;;8.23;1.88;;;;;;;14.67;86.60;101617.59;5438320;26;20007;-67
2024/04/13 03:29:16;;;;;;;4.10;1.52;;;;;;;14.70;86.87;101618.78;5439235;26;20368;-67
2024/04/13 03:31:42;;;;;;;2.25;1.67;;;;;;;14.67;87.14;101614.09;5440302;26;20132;-67
2024/04/13 03:34:08;;;;;;;4.65;1.33;;;;;;;14.67;87.45;101612.19;5436017;26;19994;-67
2024/04/13 03:36:36;;;;;;;5.75;1.85;;;;;;;14.68;87.47;101618.34;5444916;26;20045;-67
2024/04/13 03:39:02;;;;;;;5.45;1.73;;;;;;;14.68;87.41;101623.78;5439535;26;19995;-67
2024/04/13 03:41:28;;;;;;;3.78;1.90;;;;;;;14.65;87.30;101630.72;5429273;26;20007;-67
2024/04/13 03:43:54;;;;;;;3.92;1.63;;;;;;;14.69;87.59;101638.94;5441227;26;20035;-66
2024/04/13 03:46:20;;;;;;;2.58;1.48;;;;;;;14.69;87.41;101630.78;5445517;26;20076;-67
2024/04/13 03:48:45;;;;;;;4.30;1.60;;;;;;;14.66;87.63;101626.84;5440730;26;20421;-66
2024/04/13 03:51:11;;;;;;;3.70;1.45;;;;;;;14.65;87.62;101621.81;5438823;26;20100;-67
2024/04/13 03:53:37;;;;;;;3.47;1.50;;;;;;;14.65;87.54;101610.97;5438183;26;20006;-66
2024/04/13 03:56:03;;;;;;;7.95;2.20;;;;;;;14.61;87.56;101612.81;5444672;26;20014;-67
2024/04/13 03:58:30;;;;;;;5.55;1.80;;;;;;;14.55;88.19;101620.44;5446823;26;20031;-67
2024/04/13 04:00:55;;;;;;;3.17;1.38;;;;;;;14.58;87.85;101619.72;5445954;26;20364;-66
2024/04/13 04:03:22;;;;;;;1.88;1.48;;;;;;;14.55;88.20;101611.53;5441503;26;20035;-66
2024/04/13 04:05:51;;;;;;;6.43;1.88;;;;;;;14.58;88.07;101608.88;5435409;26;19999;-66
2024/04/13 04:08:18;;;;;;;2.45;1.52;;;;;;;14.58;88.39;101614.31;5438944;26;20010;-66
2024/04/13 04:10:44;;;;;;;3.75;1.77;;;;;;;14.63;88.20;101615.94;5441243;26;20013;-67
2024/04/13 04:13:09;;;;;;;5.35;2.10;;;;;;;14.57;88.13;101618.16;5446209;26;20388;-66
2024/04/13 04:15:35;;;;;;;4.80;1.90;;;;;;;14.60;87.56;101598.47;5439657;26;20002;-66
2024/04/13 04:18:02;;;;;;;6.07;2.05;;;;;;;14.59;88.31;101604.25;5438762;26;19998;-66
2024/04/13 04:20:33;;;;;;;2.78;1.63;;;;;;;14.60;87.87;101603.09;5446977;26;21889;-67
2024/04/13 04:23:00;;;;;;;8.30;1.70;;;;;;;14.51;88.70;101605.25;5442484;26;20539;-67
2024/04/13 04:25:25;;;;;;;6.53;1.35;;;;;;;14.50;89.24;101609.88;5446449;26;19992;-66
2024/04/13 04:27:51;;;;;;;5.28;1.83;;;;;;;14.52;89.17;101613.03;5443529;26;21007;-66
2024/04/13 04:30:17;;;;;;;4.00;1.63;;;;;;;14.51;89.35;101610.66;5445681;26;20065;-66
2024/04/13 04:32:44;;;;;;;6.72;1.92;;;;;;;14.56;89.23;101610.38;5445690;26;20341;-66
2024/04/13 04:35:10;;;;;;;6.15;1.42;;;;;;;14.58;89.21;101610.81;5445647;26;20075;-66
2024/04/13 04:37:35;;;;;;;3.03;1.77;;;;;;;14.55;89.81;101606.09;5412975;26;20015;-66
2024/04/13 04:40:01;;;;;;;4.00;1.83;;;;;;;14.48;89.79;101610.25;5440876;26;20067;-67
2024/04/13 04:42:28;;;;;;;11.80;2.40;;;;;;;14.48;90.05;101607.53;5444393;26;20010;-67
2024/04/13 04:44:55;;;;;;;4.15;1.80;;;;;;;14.54;90.29;101615.41;5440415;26;20457;-66
2024/04/13 04:47:20;;;;;;;3.40;1.63;;;;;;;14.58;90.49;101608.88;5411964;26;19999;-66
2024/04/13 04:49:46;;;;;;;3.60;2.28;;;;;;;14.65;90.23;101614.47;5442303;26;20317;-66
2024/04/13 04:52:13;;;;;;;3.55;1.60;;;;;;;14.62;90.41;101598.09;5410837;26;20003;-66
2024/04/13 04:54:38;;;;;;;2.05;1.27;;;;;;;14.53;90.49;101608.38;5446015;26;20002;-67
2024/04/13 04:57:04;;;;;;;3.67;1.73;;;;;;;14.58;91.19;101611.59;5441560;26;20495;-67
2024/04/13 04:59:30;;;;;;;2.60;1.55;;;;;;;14.60;90.21;101598.47;5446829;26;19995;-66
2024/04/13 05:01:56;;;;;;;4.82;1.80;;;;;;;14.60;90.79;101598.47;5414671;26;20010;-66
2024/04/13 05:04:23;;;;;;;3.63;1.70;;;;;;;14.74;90.36;101598.75;5442841;26;19999;-67
2024/04/13 05:06:49;;;;;;;3.00;1.85;;;;;;;14.78;89.96;101605.03;5467747;26;20457;-66
2024/04/13 05:09:14;;;;;;;3.10;1.58;;;;;;;14.75;89.94;101599.53;5416545;26;20006;-66
2024/04/13 05:11:40;;;;;;;6.47;1.92;;;;;;;14.79;90.06;101598.44;5443829;26;20005;-66
2024/04/13 05:14:07;;;;;;;4.55;1.60;;;;;;;14.81;90.23;101595.34;5443631;26;20408;-66
2024/04/13 05:16:34;;;;;;;3.30;1.38;;;;;;;14.87;90.07;101604.78;5411588;26;19995;-66
2024/04/13 05:19:01;;;;;;;3.53;1.73;;;;;;;14.91;90.54;101602.91;5415613;26;19994;-67
2024/04/13 05:21:26;;;;;;;1.88;1.38;;;;;;;15.03;89.92;101602.75;5416825;26;20404;-67
2024/04/13 05:23:52;;;;;;;3.47;1.73;;;;;;;15.02;89.60;101606.63;5447942;26;20010;-67
2024/04/13 05:26:18;;;;;;;11.45;1.50;;;;;;;15.04;90.01;101610.53;5446426;26;20437;-67
2024/04/13 05:28:44;;;;;;;4.45;1.90;;;;;;;15.16;89.81;101612.28;5418662;26;19995;-67
2024/04/13 05:31:09;;;;;;;6.35;1.83;;;;;;;15.17;89.90;101611.94;5416653;26;20073;-66
2024/04/13 05:33:36;;;;;;;2.78;1.52;;;;;;;15.27;89.83;101624.13;5439388;26;20011;-67
2024/04/13 05:36:02;;;;;;;4.22;1.38;;;;;;;15.35;89.52;101628.50;5446680;26;19995;-66
2024/04/13 05:38:29;;;;;;;2.83;1.60;;;;;;;15.33;89.43;101625.34;5440744;26;19995;-67
2024/04/13 05:40:56;;;;;;;2.33;1.30;;;;;;;15.37;89.27;101628.91;5439668;26;20018;-67
2024/04/13 05:43:22;;;;;;;5.43;1.88;;;;;;;15.51;89.11;101623.75;5441947;26;19999;-66
2024/04/13 05:45:49;;;;;;;2.95;1.58;;;;;;;15.61;88.77;101633.22;5445448;26;19998;-66
2024/04/13 05:48:14;;;;;;;4.93;2.25;;;;;;;15.66;88.68;101630.19;5435558;26;20006;-66
2024/04/13 05:50:40;;;;;;;3.17;1.98;;;;;;;15.72;88.53;101626.78;5413165;26;20003;-67
2024/04/13 05:53:06;;;;;;;4.72;1.70;;;;;;;15.75;88.70;101622.56;5444929;26;20497;-66
2024/04/13 05:55:36;;;;;;;3.47;1.92;;;;;;;15.95;88.20;101616.66;5448108;26;20051;-66
2024/04/13 05:58:03;;;;;;;3.13;1.83;;;;;;;16.11;87.54;101620.00;5435613;26;19998;-67
2024/04/13 06:00:28;;;;;;;4.15;1.77;;;;;;;16.23;87.15;101621.69;5443395;26;20010;-67
2024/04/13 06:02:54;;;;;;;3.75;2.20;;;;;;;16.24;86.89;101617.81;5440549;26;19998;-67
2024/04/13 06:05:19;;;;;;;4.28;1.95;;;;;;;16.15;86.81;101622.75;5442073;26;19994;-67
2024/04/13 06:07:45;;;;;;;3.13;1.67;;;;;;;16.15;87.76;101626.25;5414011;26;19999;-67
2024/04/13 06:10:10;;;;;;;3.95;2.05;;;;;;;16.13;87.93;101617.69;5440229;26;20020;-67
2024/04/13 06:12:36;;;;;;;4.28;2.40;;;;;;;16.21;87.97;101622.06;5416039;26;20079;-67
2024/04/13 06:15:02;;;;;;;3.78;1.77;;;;;;;16.33;87.60;101622.97;5413150;26;20072;-67
2024/04/13 06:17:27;;;;;;;4.65;2.10;;;;;;;16.41;87.07;101621.91;5413984;26;20017;-67
2024/04/13 06:19:53;;;;;;;5.10;2.35;;;;;;;16.51;86.93;101621.31;5443980;26;20026;-67
2024/04/13 06:22:23;;;;;;;3.20;1.67;;;;;;;16.43;87.74;101617.69;5441775;26;19999;-67
2024/04/13 06:24:50;;;;;;;8.43;2.50;;;;;;;16.50;87.30;101608.84;5441965;26;20030;-67
2024/04/13 06:27:16;;;;;;;4.68;1.80;;;;;;;16.55;87.57;101609.28;5411296;26;20000;-66
2024/04/13 06:29:49;;;;;;;6.20;1.70;;;;;;;16.72;87.08;101616.88;5445313;26;20364;-67
2024/04/13 06:32:15;;;;;;;6.60;1.85;;;;;;;16.83;86.88;101625.94;5468358;26;20007;-67
2024/04/13 06:34:41;;;;;;;6.22;2.10;;;;;;;16.97;86.47;101625.31;5448606;26;20006;-67
2024/04/13 06:37:06;;;;;;;4.85;2.30;;;;;;;16.94;86.26;101624.09;5443101;26;20370;-67
2024/04/13 06:39:32;;;;;;;4.90;2.05;;;;;;;17.05;86.43;101624.22;5439614;26;20015;-67
2024/04/13 06:41:58;;;;;;;5.15;1.90;;;;;;;17.18;85.87;101622.78;5417186;26;20003;-67
2024/04/13 06:44:23;;;;;;;4.50;2.20;;;;;;;17.30;85.27;101617.06;5438891;26;20065;-67
2024/04/13 06:46:51;;;;;;;4.50;1.83;;;;;;;17.46;85.01;101611.34;5444124;26;20027;-67
2024/04/13 06:49:20;;;;;;;3.42;1.60;;;;;;;17.36;84.66;101615.56;5441914;26;20509;-67
2024/04/13 06:51:46;;;;;;;2.38;1.38;;;;;;;17.48;84.68;101612.53;5412965;26;19995;-67
2024/04/13 06:54:12;;;;;;;5.22;2.08;;;;;;;17.52;84.14;101599.75;5446037;26;20009;-67
2024/04/13 06:56:37;;;;;;;4.38;1.80;;;;;;;17.59;84.55;101599.81;5447511;26;19999;-67
2024/04/13 06:59:03;;;;;;;2.72;1.25;;;;;;;17.66;83.75;101599.06;5438883;26;20022;-67
2024/04/13 07:01:29;;;;;;;4.50;1.90;;;;;;;17.69;82.85;101604.53;5439880;26;20002;-67
2024/04/13 07:03:56;;;;;;;4.82;1.83;;;;;;;17.74;83.17;101609.63;5416518;26;20015;-67
2024/04/13 07:06:23;;;;;;;3.05;1.60;;;;;;;18.08;82.62;101623.09;5440375;26;19999;-67
2024/04/13 07:08:49;;;;;;;1.27;0.80;;;;;;;18.21;81.40;101618.84;5442134;26;19999;-67
2024/04/13 07:11:15;;;;;;;3.05;1.65;;;;;;;18.23;81.09;101614.59;5442520;26;20014;-67
2024/04/13 07:13:41;;;;;;;3.88;1.52;;;;;;;18.19;81.13;101616.50;5445477;26;19998;-67
2024/04/13 07:16:06;;;;;;;5.43;1.48;;;;;;;17.97;81.19;101618.34;5441607;26;20461;-67
2024/04/13 07:18:32;;;;;;;4.18;1.55;;;;;;;17.84;82.46;101605.41;5440595;26;20348;-67
2024/04/13 07:20:58;;;;;;;3.55;1.33;;;;;;;18.21;81.20;101606.00;5441034;26;20014;-67
2024/04/13 07:23:23;;;;;;;6.18;1.40;;;;;;;18.41;80.33;101598.28;5445109;26;19999;-67
2024/04/13 07:26:03;;;;;;;5.45;1.35;;;;;;;18.49;79.22;101602.63;5449889;26;20340;-67
2024/04/13 07:28:30;;;;;;;3.90;1.27;;;;;;;18.47;79.37;101608.47;5448406;26;21726;-67
2024/04/13 07:30:56;;;;;;;9.85;2.25;;;;;;;18.64;79.01;101612.44;5443386;26;20014;-67
2024/04/13 07:33:22;;;;;;;2.70;1.40;;;;;;;18.70;78.70;101610.88;5449877;26;20014;-68
2024/04/13 07:35:48;;;;;;;3.97;2.28;;;;;;;18.97;78.30;101619.53;5439275;26;20003;-67
2024/04/13 07:38:14;;;;;;;4.90;1.52;;;;;;;18.96;77.39;101607.03;5445031;26;20002;-67
2024/04/13 07:40:40;;;;;;;3.10;1.42;;;;;;;19.13;77.38;101604.31;5419656;26;20348;-67
2024/04/13 07:43:06;;;;;;;4.78;1.88;;;;;;;19.06;76.72;101603.53;5450632;26;19995;-67
2024/04/13 07:45:31;;;;;;;3.78;1.52;;;;;;;18.79;77.45;101606.59;5442859;26;20340;-67
2024/04/13 07:47:57;;;;;;;4.10;1.88;;;;;;;18.97;76.69;101606.63;5444109;26;20067;-67
2024/04/13 07:50:23;;;;;;;5.75;1.48;;;;;;;18.87;76.50;101601.97;5444959;26;20068;-67
2024/04/13 07:52:49;;;;;;;3.47;1.50;;;;;;;18.66;77.24;101605.41;5448881;26;19995;-67
2024/04/13 07:55:16;;;;;;;2.25;1.17;;;;;;;18.82;77.83;101615.97;5449949;26;20007;-67
2024/04/13 07:57:41;;;;;;;4.28;1.27;;;;;;;18.67;77.95;101617.91;5446840;26;20483;-67
2024/04/13 08:00:09;;;;;;;6.28;1.55;;;;;;;18.49;77.77;101613.53;5432528;26;20422;-67
2024/04/13 08:02:38;;;;;;;;;;;;;;;18.35;78.87;101608.00;5439545;26;20021;-67
2024/04/13 08:05:07;;;;;;;5.60;1.10;;;;;;;18.87;79.00;101607.41;5449565;26;19924;-67
2024/04/13 08:07:33;;;;;;;2.85;1.40;;;;;;;19.09;76.83;101619.91;5419437;26;20059;-67
2024/04/13 08:09:58;;;;;;;2.45;1.20;;;;;;;19.40;75.33;101624.66;5412418;26;20670;-67
2024/04/13 08:12:24;;;;;;;3.08;1.40;;;;;;;19.33;75.62;101630.13;5445467;26;20524;-67
2024/04/13 08:14:51;;;;;;;3.30;1.13;;;;;;;19.53;74.56;101617.63;5450532;26;20425;-67
2024/04/13 08:17:16;;;;;;;4.82;2.00;;;;;;;19.89;74.45;101626.56;5443032;26;20079;-67
2024/04/13 08:19:42;;;;;;;9.15;1.80;;;;;;;19.99;73.29;101622.25;5448385;26;19999;-67
2024/04/13 08:22:08;;;;;;;3.72;1.55;;;;;;;20.01;73.27;101637.09;5448987;26;20003;-67
2024/04/13 08:24:33;;;;;;;3.03;1.38;;;;;;;20.21;71.44;101640.19;5419539;26;20312;-67
2024/04/13 08:26:59;;;;;;;1.85;1.70;;;;;;;20.37;70.82;101624.09;5416744;26;20469;-67
2024/04/13 08:29:24;;;;;;;7.45;1.45;;;;;;;20.30;70.64;101624.13;5416905;26;20606;-67
2024/04/13 08:31:50;;;;;;;3.50;1.40;;;;;;;20.36;71.14;101619.81;5447930;26;19995;-66
2024/04/13 08:34:18;;;;;;;2.15;1.05;;;;;;;20.61;70.92;101602.06;5440038;26;20018;-67
2024/04/13 08:36:44;;;;;;;4.72;1.50;;;;;;;20.82;69.62;101622.28;5470233;26;20003;-67
2024/04/13 08:39:12;;;;;;;4.30;1.38;;;;;;;20.95;68.79;101613.22;5442055;26;20011;-67
2024/04/13 08:41:53;;;;;;;6.20;1.30;;;;;;;20.99;68.49;101621.41;5438880;26;20011;-67
2024/04/13 08:44:19;;;;;;;2.90;1.48;;;;;;;21.03;67.91;101614.75;5447221;26;20014;-67
2024/04/13 08:46:45;;;;;;;1.90;1.17;;;;;;;20.99;67.99;101608.50;5417341;26;20481;-67
2024/04/13 08:49:13;;;;;;;3.20;1.60;;;;;;;21.29;67.98;101600.44;5442637;26;20022;-67
2024/04/13 08:51:41;;;;;;;4.68;1.23;;;;;;;21.36;66.88;101603.16;5441552;26;20488;-67
2024/04/13 08:54:07;;;;;;;2.40;1.42;;;;;;;21.49;66.47;101609.69;5410854;26;19995;-67
2024/04/13 08:56:36;;;;;;;2.47;1.30;;;;;;;21.53;66.54;101607.69;5440401;26;19992;-67
2024/04/13 08:59:05;;;;;;;1.85;1.20;;;;;;;21.73;66.32;101613.38;5406503;26;19999;-68
2024/04/13 09:01:33;;;;;;;1.85;1.40;;;;;;;21.99;65.44;101609.22;5443414;26;20006;-68
2024/04/13 09:03:59;;;;;;;3.75;1.30;;;;;;;21.87;65.37;101596.03;5417717;26;20336;-68
2024/04/13 09:06:25;;;;;;;8.45;2.05;;;;;;;22.09;64.73;101609.09;5469598;26;20002;-67
2024/04/13 09:08:52;;;;;;;4.35;1.63;;;;;;;22.12;64.16;101608.28;5446611;26;20075;-67
2024/04/13 09:11:22;;;;;;;3.80;1.40;;;;;;;22.42;64.32;101619.28;5412492;26;19995;-67
2024/04/13 09:13:49;;;;;;;2.35;1.35;;;;;;;22.55;63.17;101622.25;5442716;26;20717;-67
2024/04/13 09:16:16;;;;;;;4.15;1.60;;;;;;;22.66;61.94;101622.13;5438498;26;20010;-67
2024/04/13 09:18:42;;;;;;;2.85;1.23;;;;;;;22.63;62.59;101626.47;5447230;26;20013;-66
2024/04/13 09:21:08;;;;;;;2.67;1.23;;;;;;;22.02;62.81;101611.16;5444509;26;19995;-67
2024/04/13 09:23:34;;;;;;;5.72;1.73;;;;;;;21.39;65.37;101610.56;5445767;26;20035;-67
2024/04/13 09:26:06;;;;;;;3.10;1.58;;;;;;;21.41;66.11;101608.19;5445119;26;20014;-67
2024/04/13 09:28:39;;;;;;;2.90;1.35;;;;;;;21.75;66.34;101589.06;5435089;26;20002;-67
2024/04/13 09:31:05;;;;;;;3.05;1.38;;;;;;;21.79;65.47;101594.50;5447434;26;20002;-67
2024/04/13 09:33:32;;;;;;;2.90;1.60;;;;;;;21.88;65.17;101592.09;5444822;26;20326;-67
2024/04/13 09:35:58;;;;;;;4.57;1.52;;;;;;;21.71;65.32;101602.03;5434584;26;20398;-67
2024/04/13 09:38:23;;;;;;;3.53;1.30;;;;;;;21.62;65.79;101600.97;5448454;26;20006;-67
2024/04/13 09:40:56;;;;;;;5.78;1.35;;;;;;;21.51;66.20;101582.63;5411784;26;20003;-67
2024/04/13 09:43:22;;;;;;;1.77;1.20;;;;;;;21.42;66.44;101582.34;5416318;26;20007;-67
2024/04/13 09:45:58;;;;;;;2.83;1.40;;;;;;;21.76;66.29;101568.66;5446489;26;20376;-67
2024/04/13 09:48:23;;;;;;;5.25;1.02;;;;;;;22.14;66.86;101577.69;5411260;26;20449;-66
2024/04/13 09:50:49;;;;;;;3.33;1.55;;;;;;;22.48;64.38;101569.38;5442055;26;19999;-67
2024/04/13 09:53:17;;;;;;;3.72;1.30;;;;;;;22.82;64.37;101576.38;5434912;26;20724;-67
2024/04/13 09:55:44;;;;;;;2.88;1.30;;;;;;;22.96;61.83;101569.88;5432582;26;20015;-67
2024/04/13 09:58:14;;;;;;;2.88;1.30;;;;;;;23.00;60.64;101582.38;5443453;26;20006;-67
2024/04/13 10:00:40;;;;;;;4.32;1.58;;;;;;;23.15;60.53;101577.44;5414484;26;19998;-67
2024/04/13 10:03:06;;;;;;;3.15;1.60;;;;;;;23.35;59.38;101577.50;5474208;26;20071;-67
2024/04/13 10:05:36;;;;;;;3.58;1.35;;;;;;;23.28;58.38;101587.44;5445263;26;20015;-67
2024/04/13 10:08:05;;;;;;;2.42;1.15;;;;;;;23.27;58.71;101585.06;5451738;26;19995;-67
2024/04/13 10:10:32;;;;;;;3.63;1.42;;;;;;;23.46;59.24;101581.63;5438635;26;20007;-67
2024/04/13 10:12:58;;;;;;;1.55;0.93;;;;;;;23.55;57.63;101581.88;5409914;26;20009;-67
2024/04/13 10:15:25;;;;;;;1.02;0.85;;;;;;;23.24;57.36;101581.19;5447235;26;20014;-67
2024/04/13 10:17:52;;;;;;;3.83;1.10;;;;;;;23.09;58.34;101571.63;5415838;26;20010;-67
2024/04/13 10:20:18;;;;;;;3.50;1.25;;;;;;;23.43;58.05;101563.22;5446357;26;20002;-67
2024/04/13 10:22:58;;;;;;;3.92;1.50;;;;;;;23.25;56.81;101558.00;5452315;26;20362;-67
2024/04/13 10:25:28;;;;;;;3.90;1.15;;;;;;;23.21;56.38;101553.75;5446645;26;19995;-67
2024/04/13 10:28:04;;;;;;;3.28;1.20;;;;;;;23.02;55.71;101543.47;5471887;26;19998;-67
2024/04/13 10:30:45;;;;;;;1.95;0.90;;;;;;;23.26;55.64;101543.06;5415365;26;20109;-67
2024/04/13 10:33:23;;;;;;;4.72;1.00;;;;;;;23.52;56.28;101537.94;5473541;26;19999;-67
2024/04/13 10:35:52;;;;;;;1.67;0.60;;;;;;;23.65;55.07;101530.59;5440361;26;20067;-67
2024/04/13 10:38:18;;;;;;;2.30;0.80;;;;;;;23.83;54.92;101542.00;5436923;26;20000;-67
2024/04/13 10:40:43;;;;;;;1.75;1.00;;;;;;;23.76;53.79;101542.94;5448397;26;20002;-67
2024/04/13 10:43:15;;;;;;;0.82;0.60;;;;;;;24.07;53.08;101540.78;5448074;26;20098;-68
2024/04/13 10:45:41;;;;;;;1.38;0.80;;;;;;;24.20;53.26;101547.19;5443064;26;20199;-68
2024/04/13 10:48:06;;;;;;;2.92;1.10;;;;;;;24.36;51.99;101535.44;5442697;26;20368;-67
2024/04/13 10:50:33;;;;;;;3.45;0.77;;;;;;;24.52;53.12;101541.75;5444981;26;19995;-67
2024/04/13 10:53:00;;;;;;;1.73;0.90;;;;;;;24.49;52.26;101539.06;5439406;26;20003;-67
2024/04/13 10:55:25;;;;;;;11.40;1.00;;;;;;;24.62;50.74;101543.47;5413408;26;20083;-67
2024/04/13 10:57:52;;;;;;;3.40;1.33;;;;;;;24.33;50.96;101534.28;5447480;26;20084;-67
2024/04/13 11:00:18;;;;;;;2.17;0.68;;;;;;;24.16;51.64;101533.50;5446901;26;20010;-67
2024/04/13 11:02:46;;;;;;;1.92;0.90;;;;;;;24.34;51.96;101524.84;5447085;26;20009;-67
2024/04/13 11:05:19;;;;;;;2.38;1.00;;;;;;;24.51;51.23;101533.91;5417163;26;20071;-67
2024/04/13 11:07:45;;;;;;;3.83;0.80;;;;;;;24.35;50.86;101534.66;5448301;26;20006;-67
2024/04/13 11:10:11;;;;;;;1.75;0.90;;;;;;;24.47;50.63;101530.44;5447526;26;20010;-67
2024/04/13 11:12:36;;;;;;;1.40;1.10;;;;;;;24.55;51.65;101524.34;5445646;26;19999;-67
2024/04/13 11:15:02;;;;;;;4.43;0.82;;;;;;;24.81;50.80;101517.88;5451865;26;20010;-67
2024/04/13 11:17:28;;;;;;;5.75;0.90;;;;;;;24.85;50.47;101529.56;5445787;26;20401;-67
2024/04/13 11:19:53;;;;;;;1.30;1.10;;;;;;;24.80;49.75;101527.34;5445784;26;20002;-67
2024/04/13 11:22:20;;;;;;;1.67;0.63;;;;;;;24.97;49.22;101520.59;5446353;26;20010;-67